sensor_id;sensor_type;location;lat;lon;timestamp;P1;durP1;ratioP1;P2;durP2;ratioP2
40815;SDS011;26535;48.788;9.214;2024-01-11T00:00:16;53.17;;;26.35;;
40815;SDS011;26535;48.788;9.214;2024-01-11T00:02:41;54.22;;;27.45;;
40815;SDS011;26535;48.788;9.214;2024-01-11T00:05:07;55.65;;;27.88;;
40815;SDS011;26535;48.788;9.214;2024-01-11T00:07:34;56.13;;;27.10;;
40815;SDS011;26535;48.788;9.214;2024-01-11T00:10:00;49.67;;;26.55;;
40815;SDS011;26535;48.788;9.214;2024-01-11T00:12:27;54.42;;;27.45;;
40815;SDS011;26535;48.788;9.214;2024-01-11T00:14:52;51.67;;;27.25;;
40815;SDS011;26535;48.788;9.214;2024-01-11T00:17:18;52.15;;;27.00;;
40815;SDS011;26535;48.788;9.214;2024-01-11T00:19:44;55.53;;;27.40;;
40815;SDS011;26535;48.788;9.214;2024-01-11T00:22:10;50.28;;;26.45;;
40815;SDS011;26535;48.788;9.214;2024-01-11T00:24:35;50.00;;;28.02;;
40815;SDS011;26535;48.788;9.214;2024-01-11T00:27:01;58.50;;;27.10;;
40815;SDS011;26535;48.788;9.214;2024-01-11T00:29:27;56.95;;;28.38;;
40815;SDS011;26535;48.788;9.214;2024-01-11T00:31:53;58.03;;;29.27;;
40815;SDS011;26535;48.788;9.214;2024-01-11T00:34:19;55.23;;;28.07;;
40815;SDS011;26535;48.788;9.214;2024-01-11T00:36:46;53.55;;;27.98;;
40815;SDS011;26535;48.788;9.214;2024-01-11T00:39:12;55.85;;;28.23;;
40815;SDS011;26535;48.788;9.214;2024-01-11T00:41:38;52.17;;;26.38;;
40815;SDS011;26535;48.788;9.214;2024-01-11T00:44:04;53.28;;;28.35;;
40815;SDS011;26535;48.788;9.214;2024-01-11T00:46:29;58.00;;;29.45;;
40815;SDS011;26535;48.788;9.214;2024-01-11T00:48:56;54.92;;;28.77;;
40815;SDS011;26535;48.788;9.214;2024-01-11T00:51:25;54.78;;;27.55;;
40815;SDS011;26535;48.788;9.214;2024-01-11T00:53:51;51.60;;;28.25;;
40815;SDS011;26535;48.788;9.214;2024-01-11T00:56:17;53.28;;;28.30;;
40815;SDS011;26535;48.788;9.214;2024-01-11T00:58:43;56.60;;;28.17;;
40815;SDS011;26535;48.788;9.214;2024-01-11T01:01:12;59.33;;;29.08;;
40815;SDS011;26535;48.788;9.214;2024-01-11T01:03:38;62.63;;;30.08;;
40815;SDS011;26535;48.788;9.214;2024-01-11T01:06:07;57.97;;;29.02;;
40815;SDS011;26535;48.788;9.214;2024-01-11T01:08:33;55.13;;;28.20;;
40815;SDS011;26535;48.788;9.214;2024-01-11T01:11:02;60.90;;;29.33;;
40815;SDS011;26535;48.788;9.214;2024-01-11T01:13:28;55.45;;;29.05;;
40815;SDS011;26535;48.788;9.214;2024-01-11T01:15:53;62.35;;;30.25;;
40815;SDS011;26535;48.788;9.214;2024-01-11T01:18:19;58.00;;;30.92;;
40815;SDS011;26535;48.788;9.214;2024-01-11T01:20:45;57.33;;;30.20;;
40815;SDS011;26535;48.788;9.214;2024-01-11T01:23:11;59.30;;;29.48;;
40815;SDS011;26535;48.788;9.214;2024-01-11T01:25:36;60.75;;;30.70;;
40815;SDS011;26535;48.788;9.214;2024-01-11T01:28:02;58.38;;;29.70;;
40815;SDS011;26535;48.788;9.214;2024-01-11T01:30:28;61.00;;;30.33;;
40815;SDS011;26535;48.788;9.214;2024-01-11T01:32:54;57.85;;;30.35;;
40815;SDS011;26535;48.788;9.214;2024-01-11T01:35:19;58.58;;;30.10;;
40815;SDS011;26535;48.788;9.214;2024-01-11T01:37:45;59.22;;;30.92;;
40815;SDS011;26535;48.788;9.214;2024-01-11T01:40:11;59.53;;;29.80;;
40815;SDS011;26535;48.788;9.214;2024-01-11T01:42:43;57.40;;;29.88;;
40815;SDS011;26535;48.788;9.214;2024-01-11T01:45:11;55.17;;;29.05;;
40815;SDS011;26535;48.788;9.214;2024-01-11T01:47:40;59.00;;;29.00;;
40815;SDS011;26535;48.788;9.214;2024-01-11T01:50:07;54.05;;;29.08;;
40815;SDS011;26535;48.788;9.214;2024-01-11T01:52:34;63.75;;;31.90;;
40815;SDS011;26535;48.788;9.214;2024-01-11T01:55:01;59.35;;;29.45;;
40815;SDS011;26535;48.788;9.214;2024-01-11T01:57:29;55.60;;;27.35;;
40815;SDS011;26535;48.788;9.214;2024-01-11T01:59:58;60.97;;;29.13;;
40815;SDS011;26535;48.788;9.214;2024-01-11T02:02:24;54.88;;;27.73;;
40815;SDS011;26535;48.788;9.214;2024-01-11T02:04:50;60.47;;;30.45;;
40815;SDS011;26535;48.788;9.214;2024-01-11T02:07:16;62.85;;;29.67;;
40815;SDS011;26535;48.788;9.214;2024-01-11T02:09:43;55.57;;;28.50;;
40815;SDS011;26535;48.788;9.214;2024-01-11T02:12:10;57.90;;;28.58;;
40815;SDS011;26535;48.788;9.214;2024-01-11T02:14:38;56.95;;;28.48;;
40815;SDS011;26535;48.788;9.214;2024-01-11T02:17:05;55.25;;;28.20;;
40815;SDS011;26535;48.788;9.214;2024-01-11T02:19:31;61.05;;;29.45;;
40815;SDS011;26535;48.788;9.214;2024-01-11T02:22:00;59.92;;;29.65;;
40815;SDS011;26535;48.788;9.214;2024-01-11T02:24:40;56.03;;;29.00;;
40815;SDS011;26535;48.788;9.214;2024-01-11T02:27:05;60.95;;;30.40;;
40815;SDS011;26535;48.788;9.214;2024-01-11T02:29:31;64.65;;;28.70;;
40815;SDS011;26535;48.788;9.214;2024-01-11T02:31:57;61.75;;;30.70;;
40815;SDS011;26535;48.788;9.214;2024-01-11T02:34:26;61.67;;;30.48;;
40815;SDS011;26535;48.788;9.214;2024-01-11T02:36:52;60.95;;;30.92;;
40815;SDS011;26535;48.788;9.214;2024-01-11T02:39:18;60.33;;;29.48;;
40815;SDS011;26535;48.788;9.214;2024-01-11T02:41:45;54.90;;;28.02;;
40815;SDS011;26535;48.788;9.214;2024-01-11T02:44:12;58.63;;;28.27;;
40815;SDS011;26535;48.788;9.214;2024-01-11T02:46:38;60.15;;;29.60;;
40815;SDS011;26535;48.788;9.214;2024-01-11T02:49:03;53.75;;;28.63;;
40815;SDS011;26535;48.788;9.214;2024-01-11T02:51:29;55.65;;;28.52;;
40815;SDS011;26535;48.788;9.214;2024-01-11T02:53:55;53.33;;;28.23;;
40815;SDS011;26535;48.788;9.214;2024-01-11T02:56:20;56.22;;;27.90;;
40815;SDS011;26535;48.788;9.214;2024-01-11T02:58:46;59.55;;;29.00;;
40815;SDS011;26535;48.788;9.214;2024-01-11T03:01:12;56.88;;;28.45;;
40815;SDS011;26535;48.788;9.214;2024-01-11T03:03:38;58.35;;;28.65;;
40815;SDS011;26535;48.788;9.214;2024-01-11T03:06:03;56.63;;;28.67;;
40815;SDS011;26535;48.788;9.214;2024-01-11T03:08:29;53.05;;;27.30;;
40815;SDS011;26535;48.788;9.214;2024-01-11T03:10:55;60.95;;;29.80;;
40815;SDS011;26535;48.788;9.214;2024-01-11T03:13:21;53.25;;;27.70;;
40815;SDS011;26535;48.788;9.214;2024-01-11T03:15:48;54.23;;;27.67;;
40815;SDS011;26535;48.788;9.214;2024-01-11T03:18:13;60.40;;;28.80;;
40815;SDS011;26535;48.788;9.214;2024-01-11T03:20:39;51.05;;;26.83;;
40815;SDS011;26535;48.788;9.214;2024-01-11T03:23:05;56.72;;;28.30;;
40815;SDS011;26535;48.788;9.214;2024-01-11T03:25:30;57.60;;;28.73;;
40815;SDS011;26535;48.788;9.214;2024-01-11T03:27:57;56.53;;;28.73;;
40815;SDS011;26535;48.788;9.214;2024-01-11T03:30:24;48.00;;;23.27;;
40815;SDS011;26535;48.788;9.214;2024-01-11T03:32:49;56.00;;;29.17;;
40815;SDS011;26535;48.788;9.214;2024-01-11T03:35:18;53.83;;;27.63;;
40815;SDS011;26535;48.788;9.214;2024-01-11T03:37:44;56.45;;;28.67;;
40815;SDS011;26535;48.788;9.214;2024-01-11T03:40:10;56.60;;;28.67;;
40815;SDS011;26535;48.788;9.214;2024-01-11T03:42:36;57.08;;;28.67;;
40815;SDS011;26535;48.788;9.214;2024-01-11T03:45:02;58.97;;;27.95;;
40815;SDS011;26535;48.788;9.214;2024-01-11T03:47:32;56.28;;;28.25;;
40815;SDS011;26535;48.788;9.214;2024-01-11T03:49:57;56.38;;;27.65;;
40815;SDS011;26535;48.788;9.214;2024-01-11T03:52:23;57.63;;;29.20;;
40815;SDS011;26535;48.788;9.214;2024-01-11T03:54:49;60.05;;;29.40;;
40815;SDS011;26535;48.788;9.214;2024-01-11T03:57:14;62.03;;;29.00;;
40815;SDS011;26535;48.788;9.214;2024-01-11T03:59:41;52.40;;;27.58;;
40815;SDS011;26535;48.788;9.214;2024-01-11T04:02:07;59.97;;;29.00;;
40815;SDS011;26535;48.788;9.214;2024-01-11T04:04:35;59.95;;;29.58;;
40815;SDS011;26535;48.788;9.214;2024-01-11T04:07:01;56.50;;;29.17;;
40815;SDS011;26535;48.788;9.214;2024-01-11T04:09:27;61.08;;;29.83;;
40815;SDS011;26535;48.788;9.214;2024-01-11T04:11:55;64.78;;;29.58;;
40815;SDS011;26535;48.788;9.214;2024-01-11T04:14:28;60.17;;;28.98;;
40815;SDS011;26535;48.788;9.214;2024-01-11T04:16:54;52.97;;;27.80;;
40815;SDS011;26535;48.788;9.214;2024-01-11T04:19:19;56.20;;;29.08;;
40815;SDS011;26535;48.788;9.214;2024-01-11T04:21:45;58.85;;;29.13;;
40815;SDS011;26535;48.788;9.214;2024-01-11T04:24:11;64.60;;;31.92;;
40815;SDS011;26535;48.788;9.214;2024-01-11T04:26:37;57.47;;;28.65;;
40815;SDS011;26535;48.788;9.214;2024-01-11T04:29:02;56.10;;;28.95;;
40815;SDS011;26535;48.788;9.214;2024-01-11T04:31:28;60.17;;;30.13;;
40815;SDS011;26535;48.788;9.214;2024-01-11T04:33:54;57.13;;;28.65;;
40815;SDS011;26535;48.788;9.214;2024-01-11T04:36:19;57.70;;;29.98;;
40815;SDS011;26535;48.788;9.214;2024-01-11T04:38:45;60.15;;;30.27;;
40815;SDS011;26535;48.788;9.214;2024-01-11T04:41:11;52.53;;;29.08;;
40815;SDS011;26535;48.788;9.214;2024-01-11T04:43:41;60.80;;;29.80;;
40815;SDS011;26535;48.788;9.214;2024-01-11T04:48:43;61.38;;;30.48;;
40815;SDS011;26535;48.788;9.214;2024-01-11T04:51:09;60.50;;;29.83;;
40815;SDS011;26535;48.788;9.214;2024-01-11T04:53:36;59.20;;;29.55;;
40815;SDS011;26535;48.788;9.214;2024-01-11T04:56:09;61.60;;;29.65;;
40815;SDS011;26535;48.788;9.214;2024-01-11T04:58:36;57.53;;;29.63;;
40815;SDS011;26535;48.788;9.214;2024-01-11T05:01:05;61.88;;;31.40;;
40815;SDS011;26535;48.788;9.214;2024-01-11T05:03:31;67.22;;;31.85;;
40815;SDS011;26535;48.788;9.214;2024-01-11T05:05:57;59.22;;;29.67;;
40815;SDS011;26535;48.788;9.214;2024-01-11T05:08:24;54.47;;;28.63;;
40815;SDS011;26535;48.788;9.214;2024-01-11T05:10:51;46.95;;;22.77;;
40815;SDS011;26535;48.788;9.214;2024-01-11T05:13:17;60.65;;;29.13;;
40815;SDS011;26535;48.788;9.214;2024-01-11T05:15:43;60.83;;;29.75;;
40815;SDS011;26535;48.788;9.214;2024-01-11T05:18:13;62.38;;;31.25;;
40815;SDS011;26535;48.788;9.214;2024-01-11T05:20:39;64.10;;;30.27;;
40815;SDS011;26535;48.788;9.214;2024-01-11T05:23:04;64.90;;;31.27;;
40815;SDS011;26535;48.788;9.214;2024-01-11T05:25:30;58.28;;;30.60;;
40815;SDS011;26535;48.788;9.214;2024-01-11T05:30:27;62.20;;;30.88;;
40815;SDS011;26535;48.788;9.214;2024-01-11T05:32:53;65.53;;;30.50;;
40815;SDS011;26535;48.788;9.214;2024-01-11T05:35:19;65.03;;;32.40;;
40815;SDS011;26535;48.788;9.214;2024-01-11T05:37:45;61.95;;;31.02;;
40815;SDS011;26535;48.788;9.214;2024-01-11T05:40:11;61.95;;;30.05;;
40815;SDS011;26535;48.788;9.214;2024-01-11T05:42:37;61.83;;;30.15;;
40815;SDS011;26535;48.788;9.214;2024-01-11T05:45:04;58.05;;;29.90;;
40815;SDS011;26535;48.788;9.214;2024-01-11T05:47:30;62.58;;;30.40;;
40815;SDS011;26535;48.788;9.214;2024-01-11T05:49:56;62.67;;;30.85;;
40815;SDS011;26535;48.788;9.214;2024-01-11T05:52:22;55.38;;;28.92;;
40815;SDS011;26535;48.788;9.214;2024-01-11T05:54:47;62.40;;;29.30;;
40815;SDS011;26535;48.788;9.214;2024-01-11T05:57:13;60.00;;;30.58;;
40815;SDS011;26535;48.788;9.214;2024-01-11T05:59:45;60.10;;;29.73;;
40815;SDS011;26535;48.788;9.214;2024-01-11T06:02:12;60.50;;;29.83;;
40815;SDS011;26535;48.788;9.214;2024-01-11T06:04:41;47.85;;;23.42;;
40815;SDS011;26535;48.788;9.214;2024-01-11T06:07:07;61.35;;;30.15;;
40815;SDS011;26535;48.788;9.214;2024-01-11T06:09:32;64.40;;;32.15;;
40815;SDS011;26535;48.788;9.214;2024-01-11T06:12:01;64.70;;;31.80;;
40815;SDS011;26535;48.788;9.214;2024-01-11T06:14:29;65.43;;;31.95;;
40815;SDS011;26535;48.788;9.214;2024-01-11T06:16:55;69.72;;;32.35;;
40815;SDS011;26535;48.788;9.214;2024-01-11T06:19:23;61.10;;;30.40;;
40815;SDS011;26535;48.788;9.214;2024-01-11T06:21:49;62.97;;;31.05;;
40815;SDS011;26535;48.788;9.214;2024-01-11T06:24:21;59.33;;;29.80;;
40815;SDS011;26535;48.788;9.214;2024-01-11T06:26:46;65.43;;;32.70;;
40815;SDS011;26535;48.788;9.214;2024-01-11T06:29:12;66.25;;;31.90;;
40815;SDS011;26535;48.788;9.214;2024-01-11T06:31:38;66.10;;;31.88;;
40815;SDS011;26535;48.788;9.214;2024-01-11T06:34:06;64.07;;;30.77;;
40815;SDS011;26535;48.788;9.214;2024-01-11T06:36:32;63.85;;;32.35;;
40815;SDS011;26535;48.788;9.214;2024-01-11T06:38:58;60.00;;;30.20;;
40815;SDS011;26535;48.788;9.214;2024-01-11T06:41:23;65.68;;;30.10;;
40815;SDS011;26535;48.788;9.214;2024-01-11T06:43:52;60.22;;;30.05;;
40815;SDS011;26535;48.788;9.214;2024-01-11T06:46:21;58.28;;;28.90;;
40815;SDS011;26535;48.788;9.214;2024-01-11T06:48:47;58.30;;;28.75;;
40815;SDS011;26535;48.788;9.214;2024-01-11T06:51:20;63.15;;;30.30;;
40815;SDS011;26535;48.788;9.214;2024-01-11T06:53:50;55.50;;;29.63;;
40815;SDS011;26535;48.788;9.214;2024-01-11T06:56:27;55.35;;;29.80;;
40815;SDS011;26535;48.788;9.214;2024-01-11T06:58:54;61.30;;;29.63;;
40815;SDS011;26535;48.788;9.214;2024-01-11T07:01:46;61.25;;;30.85;;
40815;SDS011;26535;48.788;9.214;2024-01-11T07:04:12;65.47;;;31.75;;
40815;SDS011;26535;48.788;9.214;2024-01-11T07:06:40;59.28;;;31.75;;
40815;SDS011;26535;48.788;9.214;2024-01-11T07:09:23;62.45;;;30.13;;
40815;SDS011;26535;48.788;9.214;2024-01-11T07:11:53;65.90;;;30.83;;
40815;SDS011;26535;48.788;9.214;2024-01-11T07:14:18;61.60;;;30.48;;
40815;SDS011;26535;48.788;9.214;2024-01-11T07:16:44;64.63;;;31.83;;
40815;SDS011;26535;48.788;9.214;2024-01-11T07:19:17;64.65;;;32.05;;
40815;SDS011;26535;48.788;9.214;2024-01-11T07:21:45;61.72;;;31.05;;
40815;SDS011;26535;48.788;9.214;2024-01-11T07:24:14;65.53;;;31.58;;
40815;SDS011;26535;48.788;9.214;2024-01-11T07:27:02;61.78;;;29.67;;
40815;SDS011;26535;48.788;9.214;2024-01-11T07:29:33;64.43;;;31.45;;
40815;SDS011;26535;48.788;9.214;2024-01-11T07:32:08;62.90;;;31.08;;
40815;SDS011;26535;48.788;9.214;2024-01-11T07:34:46;62.85;;;31.00;;
40815;SDS011;26535;48.788;9.214;2024-01-11T07:37:14;63.80;;;31.25;;
40815;SDS011;26535;48.788;9.214;2024-01-11T07:39:49;64.15;;;32.30;;
40815;SDS011;26535;48.788;9.214;2024-01-11T07:42:14;65.07;;;33.60;;
40815;SDS011;26535;48.788;9.214;2024-01-11T07:45:08;67.25;;;33.40;;
40815;SDS011;26535;48.788;9.214;2024-01-11T07:47:39;65.18;;;32.17;;
40815;SDS011;26535;48.788;9.214;2024-01-11T07:50:05;65.18;;;31.30;;
40815;SDS011;26535;48.788;9.214;2024-01-11T07:52:35;65.55;;;31.20;;
40815;SDS011;26535;48.788;9.214;2024-01-11T07:55:10;59.15;;;30.05;;
40815;SDS011;26535;48.788;9.214;2024-01-11T07:57:38;62.22;;;30.70;;
40815;SDS011;26535;48.788;9.214;2024-01-11T08:00:10;62.47;;;30.85;;
40815;SDS011;26535;48.788;9.214;2024-01-11T08:02:38;61.55;;;31.27;;
40815;SDS011;26535;48.788;9.214;2024-01-11T08:05:07;65.60;;;30.88;;
40815;SDS011;26535;48.788;9.214;2024-01-11T08:07:36;61.65;;;30.27;;
40815;SDS011;26535;48.788;9.214;2024-01-11T08:10:05;61.78;;;30.20;;
40815;SDS011;26535;48.788;9.214;2024-01-11T08:12:34;61.33;;;30.13;;
40815;SDS011;26535;48.788;9.214;2024-01-11T08:15:09;58.45;;;29.70;;
40815;SDS011;26535;48.788;9.214;2024-01-11T08:18:08;61.13;;;30.42;;
40815;SDS011;26535;48.788;9.214;2024-01-11T08:20:34;60.58;;;29.65;;
40815;SDS011;26535;48.788;9.214;2024-01-11T08:23:06;61.65;;;30.42;;
40815;SDS011;26535;48.788;9.214;2024-01-11T08:25:44;58.95;;;29.35;;
40815;SDS011;26535;48.788;9.214;2024-01-11T08:28:12;58.67;;;31.10;;
40815;SDS011;26535;48.788;9.214;2024-01-11T08:30:44;60.75;;;29.80;;
40815;SDS011;26535;48.788;9.214;2024-01-11T08:33:15;57.88;;;28.80;;
40815;SDS011;26535;48.788;9.214;2024-01-11T08:36:01;54.17;;;29.27;;
40815;SDS011;26535;48.788;9.214;2024-01-11T08:38:39;58.33;;;29.00;;
40815;SDS011;26535;48.788;9.214;2024-01-11T08:41:06;60.97;;;28.75;;
40815;SDS011;26535;48.788;9.214;2024-01-11T08:43:41;57.75;;;28.55;;
40815;SDS011;26535;48.788;9.214;2024-01-11T08:46:06;58.63;;;29.33;;
40815;SDS011;26535;48.788;9.214;2024-01-11T08:48:50;57.67;;;28.67;;
40815;SDS011;26535;48.788;9.214;2024-01-11T08:51:27;62.97;;;30.65;;
40815;SDS011;26535;48.788;9.214;2024-01-11T08:53:53;57.13;;;29.10;;
40815;SDS011;26535;48.788;9.214;2024-01-11T08:56:18;56.05;;;29.40;;
40815;SDS011;26535;48.788;9.214;2024-01-11T08:58:53;59.28;;;30.23;;
40815;SDS011;26535;48.788;9.214;2024-01-11T09:01:19;56.58;;;27.60;;
40815;SDS011;26535;48.788;9.214;2024-01-11T09:04:15;52.78;;;27.45;;
40815;SDS011;26535;48.788;9.214;2024-01-11T09:06:49;56.70;;;29.75;;
40815;SDS011;26535;48.788;9.214;2024-01-11T09:09:25;51.67;;;26.90;;
40815;SDS011;26535;48.788;9.214;2024-01-11T09:14:52;58.80;;;29.30;;
40815;SDS011;26535;48.788;9.214;2024-01-11T09:17:37;60.40;;;29.83;;
40815;SDS011;26535;48.788;9.214;2024-01-11T09:20:14;54.05;;;27.65;;
40815;SDS011;26535;48.788;9.214;2024-01-11T09:22:45;57.67;;;28.33;;
40815;SDS011;26535;48.788;9.214;2024-01-11T09:25:19;59.88;;;28.90;;
40815;SDS011;26535;48.788;9.214;2024-01-11T09:28:00;52.42;;;27.60;;
40815;SDS011;26535;48.788;9.214;2024-01-11T09:31:09;63.22;;;31.00;;
40815;SDS011;26535;48.788;9.214;2024-01-11T09:36:22;54.40;;;28.38;;
40815;SDS011;26535;48.788;9.214;2024-01-11T09:38:51;57.30;;;29.17;;
40815;SDS011;26535;48.788;9.214;2024-01-11T09:41:17;59.95;;;29.13;;
40815;SDS011;26535;48.788;9.214;2024-01-11T09:43:49;60.00;;;30.35;;
40815;SDS011;26535;48.788;9.214;2024-01-11T09:46:37;59.53;;;28.77;;
40815;SDS011;26535;48.788;9.214;2024-01-11T09:49:31;55.22;;;29.02;;
40815;SDS011;26535;48.788;9.214;2024-01-11T09:52:14;54.40;;;29.52;;
40815;SDS011;26535;48.788;9.214;2024-01-11T09:54:53;58.83;;;30.92;;
40815;SDS011;26535;48.788;9.214;2024-01-11T09:57:37;58.20;;;29.30;;
40815;SDS011;26535;48.788;9.214;2024-01-11T10:00:19;53.45;;;29.42;;
40815;SDS011;26535;48.788;9.214;2024-01-11T10:03:00;52.00;;;27.92;;
40815;SDS011;26535;48.788;9.214;2024-01-11T10:05:35;55.28;;;28.88;;
40815;SDS011;26535;48.788;9.214;2024-01-11T10:08:22;50.03;;;27.63;;
40815;SDS011;26535;48.788;9.214;2024-01-11T10:10:54;53.42;;;26.33;;
40815;SDS011;26535;48.788;9.214;2024-01-11T10:13:30;56.80;;;28.00;;
40815;SDS011;26535;48.788;9.214;2024-01-11T10:16:10;52.08;;;27.10;;
40815;SDS011;26535;48.788;9.214;2024-01-11T10:18:45;61.75;;;27.70;;
40815;SDS011;26535;48.788;9.214;2024-01-11T10:21:10;55.67;;;27.30;;
40815;SDS011;26535;48.788;9.214;2024-01-11T10:24:00;52.85;;;26.00;;
40815;SDS011;26535;48.788;9.214;2024-01-11T10:26:58;56.08;;;28.38;;
40815;SDS011;26535;48.788;9.214;2024-01-11T10:32:22;50.65;;;26.10;;
40815;SDS011;26535;48.788;9.214;2024-01-11T10:36:05;54.08;;;25.83;;
40815;SDS011;26535;48.788;9.214;2024-01-11T10:38:52;56.10;;;27.85;;
40815;SDS011;26535;48.788;9.214;2024-01-11T10:41:41;50.00;;;26.10;;
40815;SDS011;26535;48.788;9.214;2024-01-11T10:44:37;53.10;;;26.83;;
40815;SDS011;26535;48.788;9.214;2024-01-11T10:47:34;56.23;;;27.87;;
40815;SDS011;26535;48.788;9.214;2024-01-11T10:51:12;49.65;;;26.15;;
40815;SDS011;26535;48.788;9.214;2024-01-11T10:54:06;53.25;;;25.90;;
40815;SDS011;26535;48.788;9.214;2024-01-11T10:56:32;48.60;;;25.88;;
40815;SDS011;26535;48.788;9.214;2024-01-11T10:59:17;47.28;;;26.58;;
40815;SDS011;26535;48.788;9.214;2024-01-11T11:01:57;48.25;;;25.88;;
40815;SDS011;26535;48.788;9.214;2024-01-11T11:04:31;49.40;;;26.52;;
40815;SDS011;26535;48.788;9.214;2024-01-11T11:07:00;50.67;;;27.15;;
40815;SDS011;26535;48.788;9.214;2024-01-11T11:09:27;45.30;;;25.80;;
40815;SDS011;26535;48.788;9.214;2024-01-11T11:11:55;44.85;;;26.30;;
40815;SDS011;26535;48.788;9.214;2024-01-11T11:14:23;46.38;;;26.88;;
40815;SDS011;26535;48.788;9.214;2024-01-11T11:16:51;47.47;;;25.85;;
40815;SDS011;26535;48.788;9.214;2024-01-11T11:19:19;43.65;;;25.52;;
40815;SDS011;26535;48.788;9.214;2024-01-11T11:21:46;48.10;;;27.52;;
40815;SDS011;26535;48.788;9.214;2024-01-11T11:24:16;42.45;;;25.35;;
40815;SDS011;26535;48.788;9.214;2024-01-11T11:26:45;42.65;;;26.05;;
40815;SDS011;26535;48.788;9.214;2024-01-11T11:29:10;41.08;;;24.88;;
40815;SDS011;26535;48.788;9.214;2024-01-11T11:31:54;41.58;;;24.75;;
40815;SDS011;26535;48.788;9.214;2024-01-11T11:34:41;40.88;;;25.08;;
40815;SDS011;26535;48.788;9.214;2024-01-11T11:37:23;43.13;;;25.77;;
40815;SDS011;26535;48.788;9.214;2024-01-11T11:39:54;38.80;;;25.05;;
40815;SDS011;26535;48.788;9.214;2024-01-11T11:42:34;40.30;;;25.50;;
40815;SDS011;26535;48.788;9.214;2024-01-11T11:45:24;40.13;;;24.17;;
40815;SDS011;26535;48.788;9.214;2024-01-11T11:47:52;40.05;;;24.63;;
40815;SDS011;26535;48.788;9.214;2024-01-11T11:50:21;38.67;;;25.58;;
40815;SDS011;26535;48.788;9.214;2024-01-11T11:52:47;36.17;;;24.55;;
40815;SDS011;26535;48.788;9.214;2024-01-11T11:55:24;36.75;;;24.52;;
40815;SDS011;26535;48.788;9.214;2024-01-11T11:57:53;36.83;;;24.10;;
40815;SDS011;26535;48.788;9.214;2024-01-11T12:00:22;35.75;;;23.75;;
40815;SDS011;26535;48.788;9.214;2024-01-11T12:02:48;37.85;;;24.83;;
40815;SDS011;26535;48.788;9.214;2024-01-11T12:05:16;36.73;;;23.73;;
40815;SDS011;26535;48.788;9.214;2024-01-11T12:07:43;39.03;;;26.50;;
40815;SDS011;26535;48.788;9.214;2024-01-11T12:10:10;36.58;;;24.60;;
40815;SDS011;26535;48.788;9.214;2024-01-11T12:12:38;37.53;;;23.58;;
40815;SDS011;26535;48.788;9.214;2024-01-11T12:15:04;35.05;;;24.90;;
40815;SDS011;26535;48.788;9.214;2024-01-11T12:17:31;35.28;;;24.02;;
40815;SDS011;26535;48.788;9.214;2024-01-11T12:19:56;35.95;;;25.20;;
40815;SDS011;26535;48.788;9.214;2024-01-11T12:22:23;36.58;;;25.15;;
40815;SDS011;26535;48.788;9.214;2024-01-11T12:24:49;35.20;;;24.30;;
40815;SDS011;26535;48.788;9.214;2024-01-11T12:27:25;37.00;;;25.52;;
40815;SDS011;26535;48.788;9.214;2024-01-11T12:29:52;34.33;;;23.90;;
40815;SDS011;26535;48.788;9.214;2024-01-11T12:32:18;36.10;;;25.48;;
40815;SDS011;26535;48.788;9.214;2024-01-11T12:34:44;36.50;;;24.73;;
40815;SDS011;26535;48.788;9.214;2024-01-11T12:37:10;37.08;;;24.45;;
40815;SDS011;26535;48.788;9.214;2024-01-11T12:39:38;41.22;;;26.08;;
40815;SDS011;26535;48.788;9.214;2024-01-11T12:44:30;37.00;;;24.55;;
40815;SDS011;26535;48.788;9.214;2024-01-11T12:46:57;42.58;;;25.42;;
40815;SDS011;26535;48.788;9.214;2024-01-11T12:49:23;37.75;;;25.50;;
40815;SDS011;26535;48.788;9.214;2024-01-11T12:51:50;41.78;;;26.02;;
40815;SDS011;26535;48.788;9.214;2024-01-11T12:54:16;37.92;;;24.58;;
40815;SDS011;26535;48.788;9.214;2024-01-11T12:56:45;35.10;;;24.25;;
40815;SDS011;26535;48.788;9.214;2024-01-11T12:59:14;37.47;;;24.95;;
40815;SDS011;26535;48.788;9.214;2024-01-11T13:01:44;39.00;;;25.17;;
40815;SDS011;26535;48.788;9.214;2024-01-11T13:04:16;39.03;;;26.23;;
40815;SDS011;26535;48.788;9.214;2024-01-11T13:06:45;37.90;;;24.60;;
40815;SDS011;26535;48.788;9.214;2024-01-11T13:09:11;40.58;;;25.02;;
40815;SDS011;26535;48.788;9.214;2024-01-11T13:11:42;39.30;;;24.67;;
40815;SDS011;26535;48.788;9.214;2024-01-11T13:14:11;40.38;;;24.90;;
40815;SDS011;26535;48.788;9.214;2024-01-11T13:16:44;37.08;;;23.50;;
40815;SDS011;26535;48.788;9.214;2024-01-11T13:19:11;39.67;;;26.55;;
40815;SDS011;26535;48.788;9.214;2024-01-11T13:21:36;42.50;;;25.52;;
40815;SDS011;26535;48.788;9.214;2024-01-11T13:24:06;40.08;;;25.35;;
40815;SDS011;26535;48.788;9.214;2024-01-11T13:26:35;41.00;;;25.80;;
40815;SDS011;26535;48.788;9.214;2024-01-11T13:29:02;41.67;;;25.30;;
40815;SDS011;26535;48.788;9.214;2024-01-11T13:31:31;39.38;;;25.08;;
40815;SDS011;26535;48.788;9.214;2024-01-11T13:34:04;42.97;;;25.35;;
40815;SDS011;26535;48.788;9.214;2024-01-11T13:36:32;42.45;;;24.95;;
40815;SDS011;26535;48.788;9.214;2024-01-11T13:38:59;44.65;;;25.70;;
40815;SDS011;26535;48.788;9.214;2024-01-11T13:41:31;45.53;;;24.92;;
40815;SDS011;26535;48.788;9.214;2024-01-11T13:44:03;41.80;;;24.88;;
40815;SDS011;26535;48.788;9.214;2024-01-11T13:46:34;42.65;;;25.55;;
40815;SDS011;26535;48.788;9.214;2024-01-11T13:49:12;42.25;;;24.42;;
40815;SDS011;26535;48.788;9.214;2024-01-11T13:51:44;42.72;;;24.63;;
40815;SDS011;26535;48.788;9.214;2024-01-11T13:54:13;47.53;;;26.40;;
40815;SDS011;26535;48.788;9.214;2024-01-11T13:56:39;47.63;;;25.92;;
40815;SDS011;26535;48.788;9.214;2024-01-11T13:59:08;45.60;;;24.48;;
40815;SDS011;26535;48.788;9.214;2024-01-11T14:01:33;45.70;;;25.77;;
40815;SDS011;26535;48.788;9.214;2024-01-11T14:03:59;44.95;;;24.98;;
40815;SDS011;26535;48.788;9.214;2024-01-11T14:06:28;44.28;;;26.17;;
40815;SDS011;26535;48.788;9.214;2024-01-11T14:08:59;43.42;;;24.60;;
40815;SDS011;26535;48.788;9.214;2024-01-11T14:11:31;43.92;;;25.30;;
40815;SDS011;26535;48.788;9.214;2024-01-11T14:14:00;42.55;;;25.30;;
40815;SDS011;26535;48.788;9.214;2024-01-11T14:16:31;40.72;;;24.65;;
40815;SDS011;26535;48.788;9.214;2024-01-11T14:18:57;42.67;;;25.70;;
40815;SDS011;26535;48.788;9.214;2024-01-11T14:21:30;42.72;;;26.52;;
40815;SDS011;26535;48.788;9.214;2024-01-11T14:23:56;39.00;;;24.23;;
40815;SDS011;26535;48.788;9.214;2024-01-11T14:26:22;42.55;;;24.77;;
40815;SDS011;26535;48.788;9.214;2024-01-11T14:28:50;41.38;;;25.33;;
40815;SDS011;26535;48.788;9.214;2024-01-11T14:31:16;44.28;;;25.58;;
40815;SDS011;26535;48.788;9.214;2024-01-11T14:33:43;40.95;;;25.67;;
40815;SDS011;26535;48.788;9.214;2024-01-11T14:36:09;49.75;;;25.75;;
40815;SDS011;26535;48.788;9.214;2024-01-11T14:38:35;43.20;;;25.48;;
40815;SDS011;26535;48.788;9.214;2024-01-11T14:41:01;43.92;;;25.33;;
40815;SDS011;26535;48.788;9.214;2024-01-11T14:43:27;45.58;;;25.75;;
40815;SDS011;26535;48.788;9.214;2024-01-11T14:45:53;44.72;;;25.13;;
40815;SDS011;26535;48.788;9.214;2024-01-11T14:48:20;42.90;;;25.30;;
40815;SDS011;26535;48.788;9.214;2024-01-11T14:50:46;46.78;;;25.60;;
40815;SDS011;26535;48.788;9.214;2024-01-11T14:53:18;45.35;;;25.33;;